createdAt,value
2017-10-31T00:01:16.376Z,6.30
2017-10-31T00:03:44.693Z,6.30
2017-10-31T00:06:12.236Z,6.30
2017-10-31T00:08:39.730Z,6.30
2017-10-31T00:11:07.274Z,6.30
2017-10-31T00:13:34.772Z,6.30
2017-10-31T00:16:03.047Z,6.20
2017-10-31T00:18:31.346Z,6.10
2017-10-31T00:20:58.886Z,6.10
2017-10-31T00:23:27.176Z,6.00
2017-10-31T00:25:54.702Z,6.00
2017-10-31T00:28:22.206Z,6.00
2017-10-31T00:30:49.744Z,5.90
2017-10-31T00:33:17.278Z,5.90
2017-10-31T00:35:45.625Z,5.80
2017-10-31T00:38:13.141Z,5.80
2017-10-31T00:40:41.556Z,5.80
2017-10-31T00:43:09.084Z,5.70
2017-10-31T00:45:36.606Z,5.70
2017-10-31T00:48:04.101Z,5.60
2017-10-31T00:50:31.640Z,5.50
2017-10-31T00:52:59.929Z,5.40
2017-10-31T00:55:27.428Z,5.40
2017-10-31T00:57:55.029Z,5.40
2017-10-31T01:00:23.303Z,5.30
2017-10-31T01:02:51.599Z,5.30
2017-10-31T01:05:19.104Z,5.30
2017-10-31T01:07:47.429Z,5.50
2017-10-31T01:10:14.945Z,5.40
2017-10-31T01:12:42.444Z,5.50
2017-10-31T01:15:09.960Z,5.50
2017-10-31T01:17:37.556Z,5.50
2017-10-31T01:20:05.078Z,5.50
2017-10-31T01:22:32.580Z,5.50
2017-10-31T01:25:00.112Z,5.50
2017-10-31T01:27:28.401Z,5.50
2017-10-31T01:29:55.905Z,5.50
2017-10-31T01:32:23.445Z,5.50
2017-10-31T01:34:51.001Z,5.50
2017-10-31T01:37:18.538Z,5.50
2017-10-31T01:39:46.055Z,5.50
2017-10-31T01:42:13.597Z,5.50
2017-10-31T01:44:41.101Z,5.50
2017-10-31T01:47:09.366Z,5.50
2017-10-31T01:49:37.652Z,5.50
2017-10-31T01:52:05.917Z,5.40
2017-10-31T01:54:34.226Z,5.50
2017-10-31T01:57:01.734Z,5.40
2017-10-31T01:59:30.144Z,5.40
2017-10-31T02:01:57.709Z,5.40
2017-10-31T02:04:25.248Z,5.40
2017-10-31T02:06:53.521Z,5.40
2017-10-31T02:09:21.806Z,5.40
2017-10-31T02:11:50.096Z,5.40
2017-10-31T02:14:17.666Z,5.40
2017-10-31T02:16:45.193Z,5.40
2017-10-31T02:19:13.475Z,5.30
2017-10-31T02:21:41.769Z,5.40
2017-10-31T02:24:09.261Z,5.30
2017-10-31T02:26:36.803Z,5.30
2017-10-31T02:29:04.367Z,5.30
2017-10-31T02:31:32.315Z,5.30
2017-10-31T02:33:59.830Z,5.20
2017-10-31T02:36:28.102Z,5.10
2017-10-31T02:39:08.429Z,5.10
2017-10-31T02:41:35.933Z,5.00
2017-10-31T02:44:04.228Z,4.90
2017-10-31T02:46:31.727Z,4.90
2017-10-31T02:48:59.227Z,4.90
2017-10-31T02:51:27.520Z,4.80
2017-10-31T02:53:55.065Z,4.70
2017-10-31T02:56:22.614Z,4.80
2017-10-31T02:58:50.134Z,4.80
2017-10-31T03:01:18.067Z,4.90
2017-10-31T03:03:45.569Z,4.90
2017-10-31T03:06:13.081Z,5.00
2017-10-31T03:08:40.648Z,5.10
2017-10-31T03:11:08.190Z,5.10
2017-10-31T03:13:35.732Z,5.10
2017-10-31T03:16:03.995Z,5.10
2017-10-31T03:18:32.281Z,5.00
2017-10-31T03:21:00.542Z,5.00
2017-10-31T03:23:28.805Z,5.00
2017-10-31T03:25:56.705Z,5.00
2017-10-31T03:28:24.267Z,5.00
2017-10-31T03:30:51.816Z,5.00
2017-10-31T03:33:20.073Z,4.90
2017-10-31T03:35:47.593Z,4.90
2017-10-31T03:38:15.077Z,4.90
2017-10-31T03:40:42.669Z,4.80
2017-10-31T03:43:10.222Z,4.80
2017-10-31T03:45:37.725Z,4.80
2017-10-31T03:48:05.247Z,4.80
2017-10-31T03:50:32.751Z,4.80
2017-10-31T03:53:00.294Z,4.80
2017-10-31T03:55:27.785Z,4.80
2017-10-31T03:57:55.281Z,4.80
2017-10-31T04:00:22.797Z,4.80
2017-10-31T04:02:50.341Z,4.80
2017-10-31T04:05:17.882Z,4.80
2017-10-31T04:07:45.390Z,4.80
2017-10-31T04:10:13.700Z,4.80
2017-10-31T04:12:41.226Z,4.70
2017-10-31T04:15:09.500Z,4.80
2017-10-31T04:17:37.779Z,4.70
2017-10-31T04:20:06.051Z,4.70
2017-10-31T04:22:34.354Z,4.70
2017-10-31T04:25:01.865Z,4.60
2017-10-31T04:27:29.400Z,4.60
2017-10-31T04:29:57.020Z,4.50
2017-10-31T04:32:24.513Z,4.60
2017-10-31T04:34:52.029Z,4.50
2017-10-31T04:37:19.581Z,4.40
2017-10-31T04:39:47.092Z,4.40
2017-10-31T04:42:14.612Z,4.40
2017-10-31T04:44:42.113Z,4.30
2017-10-31T04:47:09.633Z,4.20
2017-10-31T04:49:37.179Z,4.20
2017-10-31T04:52:04.700Z,4.20
2017-10-31T04:54:32.209Z,4.20
2017-10-31T04:56:59.696Z,4.10
2017-10-31T04:59:27.209Z,4.10
2017-10-31T05:01:54.721Z,4.00
2017-10-31T05:04:22.256Z,4.00
2017-10-31T05:06:49.756Z,4.00
2017-10-31T05:09:18.036Z,4.10
2017-10-31T05:11:46.336Z,4.10
2017-10-31T05:14:13.836Z,4.10
2017-10-31T05:16:41.350Z,4.00
2017-10-31T05:19:08.849Z,4.00
2017-10-31T05:21:36.345Z,4.00
2017-10-31T05:24:04.620Z,3.90
2017-10-31T05:26:33.477Z,3.90
2017-10-31T05:29:01.784Z,3.90
2017-10-31T05:31:30.065Z,3.80
2017-10-31T05:33:58.330Z,3.80
2017-10-31T05:36:26.638Z,3.70
2017-10-31T05:38:54.166Z,3.70
2017-10-31T05:41:22.451Z,3.70
2017-10-31T05:43:49.961Z,3.60
2017-10-31T05:46:17.498Z,3.70
2017-10-31T05:48:45.001Z,3.70
2017-10-31T05:51:13.284Z,3.80
2017-10-31T05:53:41.574Z,3.80
2017-10-31T05:56:09.073Z,3.80
2017-10-31T05:58:36.597Z,3.80
2017-10-31T06:01:04.100Z,3.80
2017-10-31T06:03:31.609Z,3.80
2017-10-31T06:05:59.118Z,3.70
2017-10-31T06:08:26.654Z,3.70
2017-10-31T06:10:54.176Z,3.70
2017-10-31T06:13:22.475Z,3.70
2017-10-31T06:15:49.997Z,3.60
2017-10-31T06:18:18.265Z,3.60
2017-10-31T06:20:46.550Z,3.70
2017-10-31T06:23:20.524Z,3.70
2017-10-31T06:25:53.752Z,3.70
2017-10-31T06:28:27.725Z,3.60
2017-10-31T06:31:00.893Z,3.70
2017-10-31T06:33:28.419Z,3.60
2017-10-31T06:35:55.920Z,3.60
2017-10-31T06:38:23.456Z,3.60
2017-10-31T06:40:51.078Z,3.60
2017-10-31T06:43:19.379Z,3.50
2017-10-31T06:45:46.918Z,3.50
2017-10-31T06:48:15.201Z,3.50
2017-10-31T06:50:43.495Z,3.50
2017-10-31T06:53:11.005Z,3.50
2017-10-31T06:55:38.541Z,3.60
2017-10-31T06:58:06.052Z,3.60
2017-10-31T07:00:33.564Z,3.50
2017-10-31T07:03:01.843Z,3.50
2017-10-31T07:05:29.453Z,3.50
2017-10-31T07:07:56.968Z,3.50
2017-10-31T07:10:25.273Z,3.50
2017-10-31T07:12:53.555Z,3.60
2017-10-31T07:15:21.056Z,3.50
2017-10-31T07:17:48.576Z,3.50
2017-10-31T07:20:16.095Z,3.60
2017-10-31T07:22:43.617Z,3.60
2017-10-31T07:25:11.137Z,3.60
2017-10-31T07:27:38.668Z,3.60
2017-10-31T07:30:06.164Z,3.60
2017-10-31T07:32:33.720Z,3.70
2017-10-31T07:35:01.244Z,3.70
2017-10-31T07:37:28.774Z,3.80
2017-10-31T07:39:56.297Z,3.80
2017-10-31T07:42:23.818Z,3.80
2017-10-31T07:44:51.361Z,4.00
2017-10-31T07:47:18.883Z,4.10
2017-10-31T07:49:46.385Z,4.20
2017-10-31T07:52:13.889Z,4.20
2017-10-31T07:54:41.422Z,4.40
2017-10-31T07:57:08.926Z,4.50
2017-10-31T07:59:36.448Z,4.50
2017-10-31T08:02:03.948Z,4.70
2017-10-31T08:04:31.458Z,4.80
2017-10-31T08:06:59.012Z,4.90
2017-10-31T08:09:26.513Z,5.00
2017-10-31T08:11:54.041Z,5.20
2017-10-31T08:14:21.549Z,5.20
2017-10-31T08:16:49.088Z,5.30
2017-10-31T08:19:16.606Z,5.30
2017-10-31T08:21:44.110Z,5.40
2017-10-31T08:24:11.630Z,5.40
2017-10-31T08:26:39.134Z,5.50
2017-10-31T08:29:06.656Z,5.60
2017-10-31T08:31:34.160Z,5.80
2017-10-31T08:34:01.660Z,5.90
2017-10-31T08:36:29.214Z,6.00
2017-10-31T08:38:56.733Z,6.20
2017-10-31T08:41:24.272Z,6.30
2017-10-31T08:43:51.774Z,6.40
2017-10-31T08:46:20.033Z,6.60
2017-10-31T08:48:48.344Z,6.70
2017-10-31T08:51:15.872Z,6.70
2017-10-31T08:53:44.163Z,6.90
2017-10-31T08:56:11.659Z,6.90
2017-10-31T08:58:39.198Z,7.00
2017-10-31T09:01:06.798Z,7.20
2017-10-31T09:03:34.310Z,7.40
2017-10-31T09:06:01.967Z,7.50
2017-10-31T09:08:29.463Z,7.70
2017-10-31T09:10:56.991Z,7.80
2017-10-31T09:13:24.536Z,7.80
2017-10-31T09:15:52.088Z,7.90
2017-10-31T09:18:19.597Z,8.00
2017-10-31T09:20:47.122Z,8.10
2017-10-31T09:23:14.632Z,8.20
2017-10-31T09:25:42.946Z,8.50
2017-10-31T09:28:10.453Z,8.50
2017-10-31T09:30:37.966Z,8.60
2017-10-31T09:33:05.523Z,8.70
2017-10-31T09:35:33.036Z,8.80
2017-10-31T09:38:00.562Z,8.80
2017-10-31T09:40:28.064Z,8.90
2017-10-31T09:42:56.365Z,9.10
2017-10-31T09:45:23.933Z,9.10
2017-10-31T09:47:51.465Z,9.30
2017-10-31T09:50:19.778Z,9.80
2017-10-31T09:52:47.273Z,9.80
2017-10-31T09:55:14.797Z,9.90
2017-10-31T09:57:42.315Z,9.90
2017-10-31T10:00:10.634Z,10.20
2017-10-31T10:02:38.136Z,10.20
2017-10-31T10:05:06.430Z,10.50
2017-10-31T10:07:34.013Z,10.50
2017-10-31T10:10:01.523Z,10.60
2017-10-31T10:12:29.867Z,11.10
2017-10-31T10:14:57.374Z,11.10
2017-10-31T10:17:24.902Z,11.40
2017-10-31T10:19:52.444Z,11.60
2017-10-31T10:22:19.955Z,11.80
2017-10-31T10:24:47.513Z,12.00
2017-10-31T10:27:15.031Z,12.10
2017-10-31T10:29:42.657Z,12.20
2017-10-31T10:32:10.193Z,12.40
2017-10-31T10:34:38.485Z,12.70
2017-10-31T10:37:06.040Z,12.70
2017-10-31T10:39:33.547Z,12.80
2017-10-31T10:42:01.211Z,13.00
2017-10-31T10:44:29.482Z,13.50
2017-10-31T10:46:57.757Z,13.70
2017-10-31T10:49:25.297Z,13.70
2017-10-31T10:51:52.801Z,14.00
2017-10-31T10:54:21.085Z,14.10
2017-10-31T10:56:48.587Z,14.10
2017-10-31T10:59:16.100Z,14.30
2017-10-31T11:01:43.629Z,14.30
2017-10-31T11:04:11.144Z,14.50
2017-10-31T11:06:38.697Z,14.70
2017-10-31T11:09:06.250Z,14.80
2017-10-31T11:11:33.748Z,15.00
2017-10-31T11:14:01.284Z,15.20
2017-10-31T11:16:28.789Z,15.40
2017-10-31T11:18:57.094Z,15.70
2017-10-31T11:21:24.591Z,15.60
2017-10-31T11:23:52.102Z,15.70
2017-10-31T11:26:19.631Z,15.80
2017-10-31T11:28:47.917Z,16.00
2017-10-31T11:31:16.220Z,16.20
2017-10-31T11:33:43.737Z,16.20
2017-10-31T11:36:11.294Z,16.30
2017-10-31T11:38:38.802Z,16.40
2017-10-31T11:41:06.421Z,16.30
2017-10-31T11:43:34.745Z,16.20
2017-10-31T11:46:02.248Z,16.30
2017-10-31T11:48:30.536Z,16.00
2017-10-31T11:50:58.805Z,15.80
2017-10-31T11:53:27.108Z,15.80
2017-10-31T11:55:54.605Z,15.80
2017-10-31T11:58:22.114Z,16.00
2017-10-31T12:00:49.644Z,16.30
2017-10-31T12:03:17.933Z,17.00
2017-10-31T12:05:46.224Z,17.30
2017-10-31T12:08:13.762Z,17.30
2017-10-31T12:10:42.034Z,17.90
2017-10-31T12:13:10.373Z,18.00
2017-10-31T12:15:37.893Z,18.00
2017-10-31T12:18:05.392Z,17.80
2017-10-31T12:20:32.924Z,17.60
2017-10-31T12:23:00.410Z,17.50
2017-10-31T12:25:27.939Z,17.60
2017-10-31T12:27:55.443Z,17.60
2017-10-31T12:30:22.967Z,17.30
2017-10-31T12:32:50.486Z,17.00
2017-10-31T12:35:18.027Z,17.30
2017-10-31T12:37:46.295Z,18.30
2017-10-31T12:40:13.793Z,18.20
2017-10-31T12:42:41.333Z,18.90
2017-10-31T12:45:08.847Z,19.40
2017-10-31T12:47:36.384Z,19.60
2017-10-31T12:50:03.894Z,19.60
2017-10-31T12:52:32.220Z,18.50
2017-10-31T12:54:59.787Z,18.50
2017-10-31T12:57:27.295Z,18.20
2017-10-31T12:59:55.581Z,17.50
2017-10-31T13:02:23.087Z,17.40
2017-10-31T13:04:50.648Z,17.70
2017-10-31T13:07:19.714Z,18.60
2017-10-31T13:09:47.258Z,18.60
2017-10-31T13:12:14.794Z,19.30
2017-10-31T13:14:43.082Z,20.70
2017-10-31T13:17:10.608Z,20.70
2017-10-31T13:19:38.105Z,21.30
2017-10-31T13:22:05.772Z,21.70
2017-10-31T13:24:33.317Z,21.90
2017-10-31T13:27:00.832Z,22.20
2017-10-31T13:29:30.034Z,22.80
2017-10-31T13:31:58.382Z,22.70
2017-10-31T13:34:27.577Z,23.00
2017-10-31T13:36:56.148Z,22.90
2017-10-31T13:39:24.539Z,22.80
2017-10-31T13:41:53.087Z,22.80
2017-10-31T13:44:21.570Z,22.70
2017-10-31T13:46:49.876Z,22.50
2017-10-31T13:49:18.261Z,22.40
2017-10-31T13:51:46.600Z,22.20
2017-10-31T13:54:14.154Z,21.80
2017-10-31T13:56:41.691Z,21.40
2017-10-31T13:59:10.017Z,20.20
2017-10-31T14:01:38.262Z,20.10
2017-10-31T14:04:06.735Z,19.60
2017-10-31T14:06:35.214Z,19.20
2017-10-31T14:09:03.041Z,18.80
2017-10-31T14:11:31.439Z,18.40
2017-10-31T14:13:59.769Z,17.60
2017-10-31T14:16:27.511Z,17.60
2017-10-31T14:18:55.342Z,17.30
2017-10-31T14:21:24.018Z,16.70
2017-10-31T14:23:51.576Z,16.60
2017-10-31T14:26:19.116Z,16.40
2017-10-31T14:28:46.700Z,16.10
2017-10-31T14:31:15.024Z,15.80
2017-10-31T14:33:42.607Z,15.70
2017-10-31T14:36:10.254Z,15.50
2017-10-31T14:38:37.902Z,15.40
2017-10-31T14:41:05.448Z,15.20
2017-10-31T14:43:33.016Z,15.00
2017-10-31T14:46:00.628Z,14.90
2017-10-31T14:48:28.185Z,14.70
2017-10-31T14:50:55.778Z,14.50
2017-10-31T14:53:23.339Z,14.40
2017-10-31T14:55:50.902Z,14.20
2017-10-31T14:58:18.491Z,14.10
2017-10-31T15:00:46.028Z,14.00
2017-10-31T15:03:13.670Z,13.90
2017-10-31T15:05:41.245Z,13.80
2017-10-31T15:08:08.877Z,13.60
2017-10-31T15:10:36.449Z,13.60
2017-10-31T15:13:04.025Z,13.50
2017-10-31T15:15:31.579Z,13.50
2017-10-31T15:17:59.347Z,13.40
2017-10-31T15:20:26.926Z,13.30
2017-10-31T15:22:54.483Z,13.20
2017-10-31T15:25:22.068Z,13.10
2017-10-31T15:27:49.607Z,13.10
2017-10-31T15:30:17.247Z,13.00
2017-10-31T15:32:44.808Z,12.90
2017-10-31T15:35:12.355Z,12.80
2017-10-31T15:37:39.917Z,12.70
2017-10-31T15:40:07.472Z,12.60
2017-10-31T15:42:35.137Z,12.50
2017-10-31T15:45:02.698Z,12.50
2017-10-31T15:47:30.254Z,12.40
2017-10-31T15:49:57.803Z,12.30
2017-10-31T15:52:25.368Z,12.20
2017-10-31T15:54:52.937Z,12.10
2017-10-31T15:57:20.503Z,12.00
2017-10-31T15:59:48.088Z,11.90
2017-10-31T16:02:15.662Z,11.80
2017-10-31T16:04:43.999Z,11.50
2017-10-31T16:07:11.566Z,11.50
2017-10-31T16:09:39.112Z,11.50
2017-10-31T16:12:06.712Z,11.40
2017-10-31T16:14:35.131Z,11.20
2017-10-31T16:17:02.729Z,11.20
2017-10-31T16:19:30.449Z,11.10
2017-10-31T16:21:58.013Z,11.00
2017-10-31T16:24:25.605Z,10.90
2017-10-31T16:26:53.165Z,10.80
2017-10-31T16:29:21.015Z,10.70
2017-10-31T16:31:48.579Z,10.60
2017-10-31T16:34:16.186Z,10.50
2017-10-31T16:36:43.809Z,10.40
2017-10-31T16:39:11.436Z,10.30
2017-10-31T16:41:38.973Z,10.20
2017-10-31T16:44:06.537Z,10.10
2017-10-31T16:46:34.133Z,10.10
2017-10-31T16:49:01.792Z,10.00
2017-10-31T16:51:29.360Z,10.00
2017-10-31T16:53:56.956Z,10.00
2017-10-31T16:56:24.507Z,9.90
2017-10-31T16:58:52.830Z,9.90
2017-10-31T17:01:20.392Z,9.80
2017-10-31T17:03:47.957Z,9.70
2017-10-31T17:06:15.541Z,9.60
2017-10-31T17:08:43.097Z,9.50
2017-10-31T17:11:10.685Z,9.40
2017-10-31T17:13:39.017Z,9.40
2017-10-31T17:16:06.609Z,9.30
2017-10-31T17:18:34.929Z,9.40
2017-10-31T17:21:02.482Z,9.40
2017-10-31T17:23:30.071Z,9.40
2017-10-31T17:25:57.610Z,9.30
2017-10-31T17:28:25.192Z,9.20
2017-10-31T17:30:52.722Z,9.10
2017-10-31T17:33:20.374Z,9.00
2017-10-31T17:35:47.972Z,9.00
2017-10-31T17:38:15.518Z,9.00
2017-10-31T17:40:43.091Z,8.90
2017-10-31T17:43:10.658Z,8.90
2017-10-31T17:45:38.249Z,8.80
2017-10-31T17:48:06.577Z,8.60
2017-10-31T17:50:34.118Z,8.60
2017-10-31T17:53:01.704Z,8.60
2017-10-31T17:55:29.241Z,8.60
2017-10-31T17:57:56.800Z,8.60
2017-10-31T18:00:24.383Z,8.60
2017-10-31T18:02:51.993Z,8.50
2017-10-31T18:05:19.551Z,8.50
2017-10-31T18:07:47.140Z,8.40
2017-10-31T18:10:14.790Z,8.40
2017-10-31T18:12:42.353Z,8.30
2017-10-31T18:15:09.922Z,8.20
2017-10-31T18:17:37.481Z,8.10
2017-10-31T18:20:05.049Z,8.00
2017-10-31T18:22:32.650Z,7.90
2017-10-31T18:25:01.015Z,7.90
2017-10-31T18:27:29.394Z,7.80
2017-10-31T18:29:57.722Z,7.80
2017-10-31T18:32:25.289Z,7.80
2017-10-31T18:34:52.821Z,7.80
2017-10-31T18:37:20.373Z,7.80
2017-10-31T18:39:47.941Z,7.70
2017-10-31T18:42:15.517Z,7.70
2017-10-31T18:44:43.109Z,7.70
2017-10-31T18:47:10.650Z,7.80
2017-10-31T18:49:38.232Z,7.90
2017-10-31T18:52:06.557Z,7.90
2017-10-31T18:54:34.145Z,7.80
2017-10-31T18:57:01.705Z,7.90
2017-10-31T18:59:29.376Z,7.90
2017-10-31T19:01:57.018Z,7.90
2017-10-31T19:04:24.552Z,7.90
2017-10-31T19:06:52.142Z,7.90
2017-10-31T19:09:19.776Z,8.00
2017-10-31T19:11:47.368Z,8.00
2017-10-31T19:14:14.941Z,8.00
2017-10-31T19:16:42.503Z,7.90
2017-10-31T19:19:10.852Z,7.80
2017-10-31T19:21:38.408Z,7.80
2017-10-31T19:24:06.019Z,7.80
2017-10-31T19:26:33.628Z,7.70
2017-10-31T19:29:01.187Z,7.70
2017-10-31T19:31:28.767Z,7.70
2017-10-31T19:33:56.326Z,7.70
2017-10-31T19:36:23.906Z,7.70
2017-10-31T19:38:52.229Z,7.70
2017-10-31T19:41:19.809Z,7.70
2017-10-31T19:43:47.368Z,7.80
2017-10-31T19:46:14.953Z,7.80
2017-10-31T19:48:43.261Z,7.90
2017-10-31T19:51:10.849Z,7.90
2017-10-31T19:53:38.416Z,7.90
2017-10-31T19:56:06.052Z,7.90
2017-10-31T19:58:33.637Z,7.90
2017-10-31T20:01:01.203Z,7.90
2017-10-31T20:03:28.851Z,8.00
2017-10-31T20:05:56.443Z,8.00
2017-10-31T20:08:24.793Z,8.00
2017-10-31T20:10:52.373Z,8.00
2017-10-31T20:13:20.002Z,7.90
2017-10-31T20:15:47.560Z,7.90
2017-10-31T20:18:15.131Z,7.90
2017-10-31T20:20:42.667Z,8.00
2017-10-31T20:23:10.292Z,8.00
2017-10-31T20:25:37.903Z,8.00
2017-10-31T20:28:05.515Z,8.00
2017-10-31T20:30:33.083Z,7.90
2017-10-31T20:33:00.661Z,7.90
2017-10-31T20:35:28.234Z,7.90
2017-10-31T20:37:55.802Z,7.90
2017-10-31T20:40:23.400Z,7.90
2017-10-31T20:42:51.739Z,7.90
2017-10-31T20:45:19.298Z,7.90
2017-10-31T20:47:46.860Z,7.90
2017-10-31T20:50:14.425Z,7.80
2017-10-31T20:52:42.033Z,7.80
2017-10-31T20:55:09.584Z,7.90
2017-10-31T20:57:37.185Z,7.90
2017-10-31T21:00:04.764Z,7.90
2017-10-31T21:02:32.307Z,7.90
2017-10-31T21:04:59.902Z,7.90
2017-10-31T21:07:27.458Z,7.90
2017-10-31T21:09:55.815Z,8.00
2017-10-31T21:12:23.373Z,8.00
2017-10-31T21:14:51.013Z,8.00
2017-10-31T21:17:18.588Z,8.00
2017-10-31T21:19:46.124Z,8.00
2017-10-31T21:22:13.705Z,8.10
2017-10-31T21:24:41.273Z,8.10
2017-10-31T21:27:08.869Z,8.10
2017-10-31T21:29:36.437Z,8.10
2017-10-31T21:32:04.025Z,8.10
2017-10-31T21:34:31.603Z,8.10
2017-10-31T21:36:59.147Z,8.10
2017-10-31T21:39:26.697Z,8.10
2017-10-31T21:41:54.229Z,8.10
2017-10-31T21:44:21.801Z,8.00
2017-10-31T21:46:49.351Z,8.00
2017-10-31T21:49:16.946Z,8.00
2017-10-31T21:51:44.502Z,8.00
2017-10-31T21:54:12.082Z,8.00
2017-10-31T21:56:40.440Z,8.00
2017-10-31T21:59:07.991Z,8.00
2017-10-31T22:01:35.653Z,8.00
2017-10-31T22:04:03.215Z,8.00
2017-10-31T22:06:30.776Z,8.00
2017-10-31T22:08:58.340Z,8.10
2017-10-31T22:11:25.877Z,8.00
2017-10-31T22:13:53.467Z,8.00
2017-10-31T22:16:21.033Z,7.90
2017-10-31T22:18:49.370Z,7.90
2017-10-31T22:21:16.950Z,7.80
2017-10-31T22:23:44.505Z,7.90
2017-10-31T22:26:12.087Z,7.80
2017-10-31T22:28:40.401Z,7.80
2017-10-31T22:31:07.939Z,7.80
2017-10-31T22:33:35.522Z,7.80
2017-10-31T22:36:03.057Z,7.70
2017-10-31T22:38:30.663Z,7.60
2017-10-31T22:40:58.194Z,7.60
2017-10-31T22:43:25.773Z,7.60
2017-10-31T22:45:53.310Z,7.50
2017-10-31T22:48:21.092Z,7.40
2017-10-31T22:50:48.672Z,7.40
2017-10-31T22:53:16.247Z,7.40
2017-10-31T22:55:43.806Z,7.40
2017-10-31T22:58:11.340Z,7.40
2017-10-31T23:00:38.893Z,7.40
2017-10-31T23:03:06.521Z,7.40
2017-10-31T23:05:34.125Z,7.30
2017-10-31T23:08:01.689Z,7.40
2017-10-31T23:10:29.242Z,7.40
2017-10-31T23:12:56.849Z,7.40
2017-10-31T23:15:24.913Z,7.40
2017-10-31T23:17:52.515Z,7.50
2017-10-31T23:20:20.075Z,7.60
2017-10-31T23:22:47.630Z,7.60
2017-10-31T23:25:15.200Z,7.60
2017-10-31T23:27:42.761Z,7.50
2017-10-31T23:30:10.345Z,7.60
2017-10-31T23:32:38.657Z,7.60
2017-10-31T23:35:06.241Z,7.60
2017-10-31T23:37:33.815Z,7.70
2017-10-31T23:40:01.407Z,7.60
2017-10-31T23:42:29.748Z,7.60
2017-10-31T23:44:57.315Z,7.60
2017-10-31T23:47:24.892Z,7.60
2017-10-31T23:49:53.228Z,7.70
2017-10-31T23:52:20.799Z,7.70
2017-10-31T23:54:48.359Z,7.70
2017-10-31T23:57:15.924Z,7.70
2017-10-31T23:59:43.488Z,7.80
